Roque Bluffs, Maine
Current Conditions -  °F | °C
As of 12:15 PM on Saturday 25 Oct 2014 (Local Time) from KBHB Reporting Station
Clear Clear  
Wind Chill: 13°   Ceiling: Unl
Heat Index: 13°   Visibility: 10mi
Dew Point:   Wind: 5mph
Humidity: 51%   Direction: 300°WNW
Pressure: 29.61"   Gusts: NA
Location:  44.8808°N, 67.668°W
Report Text: KBHB 251615Z AUTO 30004KT 10SM CLR 13/03 A2961 RMK AO1
Loading
Personal Weather Stations






























Interactive Weather Map
Tropical Storm Tracking
New forecast layout! Learn more

10-Day Weather Forecast

Advertisements
Track Severe Weather on mobile